createdAt,value
2018-10-09T00:02:13.635Z,83.53
2018-10-09T00:04:42.848Z,83.56
2018-10-09T00:07:11.981Z,83.22
2018-10-09T00:09:41.268Z,83.33
2018-10-09T00:12:10.978Z,83.02
2018-10-09T00:14:40.188Z,83.07
2018-10-09T00:17:09.456Z,82.59
2018-10-09T00:19:38.602Z,82.84
2018-10-09T00:22:07.813Z,82.69
2018-10-09T00:24:37.116Z,83.02
2018-10-09T00:27:06.279Z,82.88
2018-10-09T00:29:35.877Z,82.79
2018-10-09T00:32:05.012Z,82.44
2018-10-09T00:34:34.168Z,82.81
2018-10-09T00:37:03.427Z,83.21
2018-10-09T00:39:33.004Z,83.45
2018-10-09T00:42:02.188Z,83.72
2018-10-09T00:44:31.439Z,83.85
2018-10-09T00:47:00.748Z,83.70
2018-10-09T00:49:30.068Z,84.01
2018-10-09T00:51:59.363Z,83.82
2018-10-09T00:54:28.576Z,83.56
2018-10-09T00:56:57.776Z,83.43
2018-10-09T00:59:26.976Z,83.45
2018-10-09T01:01:56.220Z,82.98
2018-10-09T01:04:25.409Z,83.26
2018-10-09T01:06:54.612Z,83.63
2018-10-09T01:09:23.799Z,83.41
2018-10-09T01:11:52.961Z,83.06
2018-10-09T01:14:22.125Z,83.34
2018-10-09T01:16:51.323Z,83.78
2018-10-09T01:19:20.504Z,83.48
2018-10-09T01:21:49.670Z,83.75
2018-10-09T01:24:18.928Z,83.41
2018-10-09T01:26:48.065Z,83.45
2018-10-09T01:29:17.330Z,83.16
2018-10-09T01:31:46.527Z,83.15
2018-10-09T01:34:15.746Z,83.40
2018-10-09T01:36:45.012Z,83.36
2018-10-09T01:39:14.164Z,83.57
2018-10-09T01:41:43.343Z,82.96
2018-10-09T01:44:12.547Z,83.21
2018-10-09T01:46:41.824Z,83.48
2018-10-09T01:49:10.955Z,83.36
2018-10-09T01:51:40.150Z,83.40
2018-10-09T01:54:09.304Z,84.03
2018-10-09T01:56:38.606Z,83.95
2018-10-09T01:59:07.851Z,83.74
2018-10-09T02:01:37.083Z,84.00
2018-10-09T02:04:06.240Z,84.40
2018-10-09T02:06:46.733Z,83.75
2018-10-09T02:09:15.922Z,84.22
2018-10-09T02:11:45.128Z,84.10
2018-10-09T02:14:14.414Z,84.28
2018-10-09T02:16:43.739Z,84.22
2018-10-09T02:19:12.936Z,83.78
2018-10-09T02:21:42.259Z,84.06
2018-10-09T02:24:11.488Z,84.07
2018-10-09T02:26:40.697Z,83.99
2018-10-09T02:29:09.994Z,84.17
2018-10-09T02:31:39.199Z,83.99
2018-10-09T02:34:08.453Z,83.39
2018-10-09T02:36:37.623Z,83.98
2018-10-09T02:39:09.136Z,83.49
2018-10-09T02:41:38.473Z,83.49
2018-10-09T02:44:08.092Z,83.03
2018-10-09T02:46:37.300Z,83.45
2018-10-09T02:49:06.785Z,83.96
2018-10-09T02:51:36.337Z,83.53
2018-10-09T02:54:05.791Z,83.07
2018-10-09T02:56:35.010Z,83.49
2018-10-09T02:59:04.317Z,82.88
2018-10-09T03:06:34.604Z,83.46
2018-10-09T03:09:04.803Z,83.62
2018-10-09T03:11:34.098Z,83.84
2018-10-09T03:14:03.347Z,84.04
2018-10-09T03:16:32.564Z,83.47
2018-10-09T03:19:04.789Z,83.57
2018-10-09T03:21:34.024Z,83.73
2018-10-09T03:24:03.225Z,83.66
2018-10-09T03:26:32.412Z,83.73
2018-10-09T03:29:01.610Z,83.80
2018-10-09T03:31:30.876Z,84.32
2018-10-09T03:34:00.155Z,84.11
2018-10-09T03:36:29.413Z,84.17
2018-10-09T03:38:58.615Z,84.01
2018-10-09T03:41:27.834Z,83.90
2018-10-09T03:43:57.129Z,84.16
2018-10-09T03:46:26.369Z,83.98
2018-10-09T03:48:56.640Z,84.42
2018-10-09T03:51:25.806Z,84.58
2018-10-09T03:53:54.941Z,84.38
2018-10-09T03:56:24.145Z,83.68
2018-10-09T03:58:53.451Z,83.46
2018-10-09T04:01:22.615Z,83.41
2018-10-09T04:03:51.795Z,83.41
2018-10-09T04:06:21.044Z,83.55
2018-10-09T04:08:50.370Z,83.61
2018-10-09T04:11:19.838Z,83.67
2018-10-09T04:13:49.181Z,84.05
2018-10-09T04:16:18.328Z,84.20
2018-10-09T04:18:48.132Z,84.51
2018-10-09T04:21:17.369Z,84.35
2018-10-09T04:23:46.500Z,84.33
2018-10-09T04:26:15.682Z,84.33
2018-10-09T04:28:44.930Z,83.88
2018-10-09T04:31:14.123Z,83.84
2018-10-09T04:33:43.292Z,83.94
2018-10-09T04:36:12.475Z,84.01
2018-10-09T04:38:41.768Z,83.87
2018-10-09T04:41:10.957Z,83.86
2018-10-09T04:43:40.230Z,84.35
2018-10-09T04:46:09.489Z,83.88
2018-10-09T04:48:38.674Z,84.13
2018-10-09T04:51:07.948Z,83.71
2018-10-09T04:53:37.145Z,83.37
2018-10-09T04:56:06.427Z,83.27
2018-10-09T04:58:35.612Z,83.06
2018-10-09T05:01:04.866Z,83.58
2018-10-09T05:03:34.098Z,83.49
2018-10-09T05:06:03.280Z,83.74
2018-10-09T05:08:32.546Z,83.34
2018-10-09T05:11:01.803Z,83.76
2018-10-09T05:13:30.991Z,83.75
2018-10-09T05:16:00.176Z,83.36
2018-10-09T05:18:29.395Z,83.37
2018-10-09T05:20:58.584Z,83.79
2018-10-09T05:23:27.835Z,84.01
2018-10-09T05:25:57.084Z,83.73
2018-10-09T05:28:26.244Z,84.05
2018-10-09T05:30:55.444Z,83.96
2018-10-09T05:33:24.655Z,84.46
2018-10-09T05:35:53.856Z,84.03
2018-10-09T05:38:23.103Z,84.28
2018-10-09T05:40:52.345Z,84.03
2018-10-09T05:43:21.505Z,84.38
2018-10-09T05:45:50.677Z,83.81
2018-10-09T05:48:19.892Z,83.15
2018-10-09T05:50:49.071Z,83.52
2018-10-09T05:53:18.185Z,83.32
2018-10-09T05:55:47.398Z,83.10
2018-10-09T05:58:16.630Z,83.59
2018-10-09T06:00:45.781Z,84.00
2018-10-09T06:03:14.940Z,83.92
2018-10-09T06:05:44.175Z,84.21
2018-10-09T06:08:13.308Z,83.82
2018-10-09T06:10:42.536Z,84.26
2018-10-09T06:13:11.787Z,84.32
2018-10-09T06:15:41.141Z,84.45
2018-10-09T06:18:10.248Z,83.88
2018-10-09T06:20:39.453Z,84.37
2018-10-09T06:23:08.664Z,83.72
2018-10-09T06:25:38.104Z,84.36
2018-10-09T06:28:07.795Z,83.86
2018-10-09T06:30:37.075Z,83.94
2018-10-09T06:33:06.356Z,84.07
2018-10-09T06:35:35.516Z,84.02
2018-10-09T06:38:04.723Z,84.25
2018-10-09T06:40:33.953Z,84.04
2018-10-09T06:43:03.146Z,84.04
2018-10-09T06:45:32.347Z,84.05
2018-10-09T06:48:01.564Z,84.19
2018-10-09T06:50:30.706Z,84.32
2018-10-09T06:52:59.971Z,84.71
2018-10-09T06:55:29.139Z,84.92
2018-10-09T06:57:58.312Z,85.24
2018-10-09T07:00:27.493Z,85.10
2018-10-09T07:02:56.750Z,85.28
2018-10-09T07:05:25.917Z,84.94
2018-10-09T07:07:55.151Z,85.23
2018-10-09T07:10:24.366Z,85.12
2018-10-09T07:12:53.568Z,85.04
2018-10-09T07:15:22.804Z,85.12
2018-10-09T07:17:51.923Z,85.13
2018-10-09T07:20:21.155Z,85.16
2018-10-09T07:22:50.503Z,85.35
2018-10-09T07:25:19.757Z,85.42
2018-10-09T07:27:48.974Z,85.04
2018-10-09T07:30:18.167Z,85.50
2018-10-09T07:32:47.384Z,85.53
2018-10-09T07:35:16.545Z,85.13
2018-10-09T07:37:45.761Z,85.26
2018-10-09T07:40:14.934Z,85.44
2018-10-09T07:42:44.274Z,85.66
2018-10-09T07:45:13.520Z,85.52
2018-10-09T07:47:42.732Z,85.78
2018-10-09T07:50:12.233Z,85.50
2018-10-09T07:52:41.447Z,85.52
2018-10-09T07:55:10.823Z,84.77
2018-10-09T07:57:40.083Z,84.09
2018-10-09T08:00:09.289Z,83.18
2018-10-09T08:02:38.421Z,82.74
2018-10-09T08:05:07.655Z,81.57
2018-10-09T08:07:37.103Z,79.93
2018-10-09T08:10:06.674Z,78.73
2018-10-09T08:12:35.835Z,78.55
2018-10-09T08:15:05.080Z,77.69
2018-10-09T08:17:34.298Z,77.62
2018-10-09T08:20:03.565Z,76.98
2018-10-09T08:22:32.771Z,76.92
2018-10-09T08:25:01.945Z,76.70
2018-10-09T08:27:31.100Z,76.99
2018-10-09T08:30:00.285Z,76.58
2018-10-09T08:32:29.472Z,76.47
2018-10-09T08:34:58.712Z,76.55
2018-10-09T08:37:27.872Z,76.46
2018-10-09T08:39:57.033Z,75.99
2018-10-09T08:42:26.226Z,75.58
2018-10-09T08:44:55.399Z,75.14
2018-10-09T08:47:24.592Z,75.37
2018-10-09T08:49:53.797Z,75.39
2018-10-09T08:52:23.003Z,74.07
2018-10-09T08:54:52.200Z,73.74
2018-10-09T08:57:21.397Z,73.39
2018-10-09T08:59:50.588Z,73.20
2018-10-09T09:02:19.840Z,72.52
2018-10-09T09:04:48.993Z,72.90
2018-10-09T09:07:18.204Z,72.90
2018-10-09T09:09:47.448Z,72.35
2018-10-09T09:12:16.593Z,72.22
2018-10-09T09:14:45.829Z,72.24
2018-10-09T09:17:14.988Z,71.77
2018-10-09T09:19:44.218Z,70.62
2018-10-09T09:22:13.400Z,69.78
2018-10-09T09:24:42.739Z,69.54
2018-10-09T09:27:12.058Z,68.29
2018-10-09T09:29:41.147Z,67.49
2018-10-09T09:32:10.359Z,67.59
2018-10-09T09:34:39.623Z,67.12
2018-10-09T09:37:08.875Z,66.86
2018-10-09T09:39:38.073Z,67.10
2018-10-09T09:42:07.271Z,66.46
2018-10-09T09:44:36.568Z,66.23
2018-10-09T09:47:05.809Z,66.43
2018-10-09T09:49:35.033Z,67.01
2018-10-09T09:52:04.226Z,66.56
2018-10-09T09:54:33.428Z,67.01
2018-10-09T09:57:02.632Z,65.55
2018-10-09T09:59:31.793Z,66.00
2018-10-09T10:02:01.021Z,65.23
2018-10-09T10:04:30.264Z,64.89
2018-10-09T10:06:59.452Z,64.39
2018-10-09T10:09:28.695Z,64.44
2018-10-09T10:11:57.847Z,64.37
2018-10-09T10:14:27.045Z,62.63
2018-10-09T10:16:56.249Z,61.90
2018-10-09T10:19:25.426Z,60.74
2018-10-09T10:21:55.001Z,60.57
2018-10-09T10:24:24.246Z,61.86
2018-10-09T10:26:53.463Z,60.54
2018-10-09T10:29:22.729Z,61.63
2018-10-09T10:31:52.085Z,60.40
2018-10-09T10:34:21.300Z,61.27
2018-10-09T10:36:50.643Z,61.72
2018-10-09T10:39:19.678Z,60.10
2018-10-09T10:41:48.874Z,59.04
2018-10-09T10:44:18.086Z,60.27
2018-10-09T10:46:47.277Z,60.40
2018-10-09T10:49:16.480Z,58.99
2018-10-09T10:51:45.603Z,58.57
2018-10-09T10:54:14.747Z,59.12
2018-10-09T10:56:43.961Z,57.62
2018-10-09T10:59:13.185Z,57.20
2018-10-09T11:01:42.509Z,58.02
2018-10-09T11:04:11.652Z,57.17
2018-10-09T11:06:40.804Z,57.32
2018-10-09T11:09:10.927Z,57.50
2018-10-09T11:11:40.098Z,57.72
2018-10-09T11:14:09.318Z,58.74
2018-10-09T11:16:38.491Z,56.53
2018-10-09T11:19:07.721Z,57.44
2018-10-09T11:21:36.918Z,57.98
2018-10-09T11:24:06.122Z,57.80
2018-10-09T11:26:35.308Z,56.42
2018-10-09T11:29:04.564Z,58.53
2018-10-09T11:31:33.818Z,56.69
2018-10-09T11:34:02.996Z,56.26
2018-10-09T11:36:32.154Z,56.93
2018-10-09T11:39:01.364Z,55.92
2018-10-09T11:41:33.622Z,55.63
2018-10-09T11:44:03.701Z,54.38
2018-10-09T11:46:33.966Z,53.90
2018-10-09T11:49:03.208Z,54.56
2018-10-09T11:51:32.375Z,52.17
2018-10-09T11:54:01.516Z,53.10
2018-10-09T11:56:30.681Z,51.06
2018-10-09T11:58:59.913Z,50.72
2018-10-09T12:01:29.085Z,50.32
2018-10-09T12:03:58.281Z,50.79
2018-10-09T12:06:28.488Z,49.60
2018-10-09T12:08:57.649Z,49.35
2018-10-09T12:11:26.797Z,50.51
2018-10-09T12:13:56.093Z,50.15
2018-10-09T12:16:25.348Z,50.57
2018-10-09T12:18:54.513Z,49.69
2018-10-09T12:21:23.724Z,50.59
2018-10-09T12:23:52.845Z,51.11
2018-10-09T12:26:22.041Z,49.91
2018-10-09T12:28:51.226Z,49.00
2018-10-09T12:31:20.437Z,49.96
2018-10-09T12:33:49.577Z,49.77
2018-10-09T12:36:18.751Z,49.14
2018-10-09T12:38:47.884Z,49.28
2018-10-09T12:41:17.071Z,48.19
2018-10-09T12:43:46.277Z,49.35
2018-10-09T12:46:15.459Z,48.56
2018-10-09T12:48:44.677Z,50.09
2018-10-09T12:51:13.843Z,49.21
2018-10-09T12:53:42.965Z,47.89
2018-10-09T12:56:12.135Z,49.30
2018-10-09T12:58:41.385Z,48.54
2018-10-09T13:01:10.492Z,49.56
2018-10-09T13:03:39.678Z,47.26
2018-10-09T13:06:08.848Z,47.89
2018-10-09T13:08:38.219Z,48.00
2018-10-09T13:11:07.893Z,47.77
2018-10-09T13:13:37.083Z,46.96
2018-10-09T13:16:06.287Z,45.75
2018-10-09T13:18:35.511Z,45.70
2018-10-09T13:21:04.802Z,45.25
2018-10-09T13:23:33.929Z,45.26
2018-10-09T13:26:03.110Z,45.57
2018-10-09T13:28:32.291Z,46.62
2018-10-09T13:31:01.675Z,46.96
2018-10-09T13:33:30.897Z,47.10
2018-10-09T13:36:00.084Z,45.43
2018-10-09T13:38:29.274Z,47.35
2018-10-09T13:40:58.492Z,46.62
2018-10-09T13:43:27.762Z,45.65
2018-10-09T13:45:56.958Z,46.81
2018-10-09T13:48:26.199Z,46.21
2018-10-09T13:50:55.465Z,46.21
2018-10-09T13:53:24.634Z,46.90
2018-10-09T13:55:53.834Z,47.68
2018-10-09T13:58:23.121Z,48.76
2018-10-09T14:00:52.262Z,48.26
2018-10-09T14:03:21.527Z,50.00
2018-10-09T14:05:50.660Z,50.66
2018-10-09T14:08:20.221Z,48.61
2018-10-09T14:10:49.399Z,49.39
2018-10-09T14:13:18.600Z,49.65
2018-10-09T14:15:47.856Z,48.72
2018-10-09T14:18:17.065Z,49.58
2018-10-09T14:20:46.420Z,49.38
2018-10-09T14:23:16.760Z,50.62
2018-10-09T14:25:47.114Z,48.56
2018-10-09T14:28:20.364Z,49.28
2018-10-09T14:30:49.628Z,52.47
2018-10-09T14:33:24.206Z,50.93
2018-10-09T14:36:01.553Z,52.33
2018-10-09T14:38:31.360Z,51.74
2018-10-09T14:41:00.593Z,51.19
2018-10-09T14:43:29.788Z,52.00
2018-10-09T14:45:59.009Z,53.33
2018-10-09T14:48:29.420Z,53.90
2018-10-09T14:50:58.651Z,53.13
2018-10-09T14:58:26.256Z,52.84
2018-10-09T15:00:55.930Z,53.43
2018-10-09T15:03:25.583Z,52.69
2018-10-09T15:05:55.065Z,56.63
2018-10-09T15:08:25.315Z,57.85
2018-10-09T15:10:55.200Z,58.38
2018-10-09T15:13:24.495Z,59.15
2018-10-09T15:15:53.994Z,59.60
2018-10-09T15:18:23.547Z,57.38
2018-10-09T15:20:52.985Z,59.59
2018-10-09T15:23:23.571Z,59.80
2018-10-09T15:25:53.170Z,59.84
2018-10-09T15:28:22.860Z,61.47
2018-10-09T15:33:30.881Z,63.03
2018-10-09T15:36:00.086Z,63.98
2018-10-09T15:38:29.345Z,64.16
2018-10-09T15:40:58.831Z,65.13
2018-10-09T15:43:28.131Z,64.78
2018-10-09T15:45:57.421Z,64.91
2018-10-09T15:48:26.721Z,65.26
2018-10-09T15:50:56.161Z,65.05
2018-10-09T15:53:25.926Z,65.97
2018-10-09T15:55:55.223Z,65.67
2018-10-09T15:58:24.958Z,66.57
2018-10-09T16:00:54.333Z,66.34
2018-10-09T16:06:07.068Z,66.73
2018-10-09T16:08:36.245Z,67.48
2018-10-09T16:11:05.539Z,68.34
2018-10-09T16:13:34.769Z,68.41
2018-10-09T16:16:03.936Z,68.96
2018-10-09T16:18:33.202Z,69.34
2018-10-09T16:21:03.691Z,69.23
2018-10-09T16:23:34.777Z,69.20
2018-10-09T16:26:04.098Z,69.68
2018-10-09T16:28:33.601Z,70.85
2018-10-09T16:31:02.946Z,71.49
2018-10-09T16:33:32.146Z,71.02
2018-10-09T16:36:07.355Z,71.11
2018-10-09T16:38:36.588Z,71.84
2018-10-09T16:41:07.098Z,71.52
2018-10-09T16:43:36.395Z,71.72
2018-10-09T16:46:06.254Z,72.31
2018-10-09T16:48:35.581Z,72.13
2018-10-09T16:51:04.918Z,71.29
2018-10-09T16:53:34.272Z,71.71
2018-10-09T16:56:03.464Z,71.72
2018-10-09T16:58:32.712Z,72.16
2018-10-09T17:01:02.059Z,72.89
2018-10-09T17:03:31.391Z,73.38
2018-10-09T17:06:00.737Z,73.29
2018-10-09T17:08:29.989Z,73.47
2018-10-09T17:10:59.312Z,73.68
2018-10-09T17:13:28.590Z,73.80
2018-10-09T17:15:57.868Z,73.55
2018-10-09T17:18:28.162Z,74.00
2018-10-09T17:20:57.409Z,74.33
2018-10-09T17:23:26.628Z,73.91
2018-10-09T17:25:55.862Z,74.85
2018-10-09T17:28:25.110Z,75.08
2018-10-09T17:30:54.369Z,75.65
2018-10-09T17:33:23.738Z,76.32
2018-10-09T17:35:52.945Z,77.16
2018-10-09T17:38:22.194Z,77.18
2018-10-09T17:40:51.460Z,77.32
2018-10-09T17:43:20.661Z,76.80
2018-10-09T17:45:49.932Z,77.02
2018-10-09T17:48:19.216Z,77.08
2018-10-09T17:50:48.369Z,77.26
2018-10-09T17:53:17.639Z,77.74
2018-10-09T17:55:46.838Z,77.54
2018-10-09T17:58:15.996Z,78.12
2018-10-09T18:00:45.245Z,78.45
2018-10-09T18:03:14.599Z,78.37
2018-10-09T18:05:43.756Z,78.58
2018-10-09T18:08:13.132Z,78.78
2018-10-09T18:10:42.556Z,78.63
2018-10-09T18:13:12.716Z,78.96
2018-10-09T18:15:42.053Z,78.86
2018-10-09T18:18:11.228Z,79.05
2018-10-09T18:20:40.405Z,79.18
2018-10-09T18:23:09.653Z,79.07
2018-10-09T18:25:38.811Z,79.16
2018-10-09T18:28:08.272Z,79.26
2018-10-09T18:30:37.458Z,79.58
2018-10-09T18:33:06.987Z,79.61
2018-10-09T18:35:37.184Z,79.51
2018-10-09T18:38:06.543Z,79.95
2018-10-09T18:40:35.748Z,80.13
2018-10-09T18:43:04.970Z,80.39
2018-10-09T18:45:34.250Z,80.27
2018-10-09T18:48:03.448Z,80.10
2018-10-09T18:50:32.632Z,80.17
2018-10-09T18:53:01.789Z,80.24
2018-10-09T18:55:31.020Z,80.23
2018-10-09T18:58:00.298Z,80.14
2018-10-09T19:00:29.602Z,80.24
2018-10-09T19:02:58.835Z,80.94
2018-10-09T19:05:28.003Z,80.79
2018-10-09T19:07:57.131Z,80.37
2018-10-09T19:10:26.337Z,80.85
2018-10-09T19:12:55.812Z,80.73
2018-10-09T19:15:25.114Z,80.89
2018-10-09T19:17:54.331Z,80.65
2018-10-09T19:20:23.599Z,80.76
2018-10-09T19:22:52.760Z,81.16
2018-10-09T19:25:22.013Z,81.41
2018-10-09T19:27:51.219Z,81.86
2018-10-09T19:30:20.424Z,81.90
2018-10-09T19:32:49.597Z,82.07
2018-10-09T19:35:18.928Z,82.11
2018-10-09T19:37:48.092Z,82.30
2018-10-09T19:40:17.300Z,82.19
2018-10-09T19:42:46.641Z,82.40
2018-10-09T19:45:15.906Z,82.12
2018-10-09T19:47:45.129Z,82.14
2018-10-09T19:50:14.311Z,82.45
2018-10-09T19:52:43.515Z,82.65
2018-10-09T19:55:12.667Z,82.60
2018-10-09T19:57:41.988Z,82.33
2018-10-09T20:00:11.167Z,81.95
2018-10-09T20:02:42.390Z,81.89
2018-10-09T20:05:11.606Z,81.92
2018-10-09T20:07:40.915Z,81.53
2018-10-09T20:10:10.408Z,81.91
2018-10-09T20:12:39.575Z,82.25
2018-10-09T20:15:08.824Z,82.40
2018-10-09T20:17:38.134Z,82.45
2018-10-09T20:20:07.359Z,82.02
2018-10-09T20:22:36.680Z,81.87
2018-10-09T20:25:05.926Z,82.10
2018-10-09T20:27:35.899Z,81.96
2018-10-09T20:30:05.195Z,82.21
2018-10-09T20:32:34.540Z,82.19
2018-10-09T20:35:03.764Z,82.21
2018-10-09T20:37:32.958Z,82.44
2018-10-09T20:40:02.158Z,82.72
2018-10-09T20:42:31.384Z,82.52
2018-10-09T20:45:00.572Z,82.76
2018-10-09T20:47:35.056Z,82.49
2018-10-09T20:50:04.341Z,82.51
2018-10-09T20:52:33.489Z,82.19
2018-10-09T20:55:02.673Z,82.03
2018-10-09T20:57:31.905Z,82.02
2018-10-09T21:00:01.151Z,81.90
2018-10-09T21:02:30.330Z,81.75
2018-10-09T21:04:59.558Z,81.79
2018-10-09T21:07:28.776Z,81.79
2018-10-09T21:09:58.952Z,82.07
2018-10-09T21:12:28.140Z,82.06
2018-10-09T21:14:57.261Z,82.43
2018-10-09T21:17:26.521Z,82.25
2018-10-09T21:19:55.661Z,82.49
2018-10-09T21:22:24.903Z,82.68
2018-10-09T21:24:54.097Z,82.39
2018-10-09T21:27:23.204Z,82.56
2018-10-09T21:29:52.417Z,82.27
2018-10-09T21:32:21.567Z,82.37
2018-10-09T21:34:50.708Z,81.86
2018-10-09T21:37:19.832Z,81.61
2018-10-09T21:39:48.961Z,81.63
2018-10-09T21:42:18.074Z,81.61
2018-10-09T21:44:47.344Z,81.43
2018-10-09T21:47:17.645Z,81.73
2018-10-09T21:49:46.763Z,81.86
2018-10-09T21:52:15.940Z,81.80
2018-10-09T21:54:45.227Z,82.09
2018-10-09T21:57:14.476Z,82.45
2018-10-09T21:59:43.621Z,82.42
2018-10-09T22:02:12.796Z,82.52
2018-10-09T22:04:42.050Z,82.43
2018-10-09T22:07:19.281Z,82.10
2018-10-09T22:09:50.792Z,82.37
2018-10-09T22:12:20.125Z,82.34
2018-10-09T22:14:49.304Z,82.45
2018-10-09T22:17:18.536Z,82.44
2018-10-09T22:19:47.685Z,82.81
2018-10-09T22:22:16.891Z,83.37
2018-10-09T22:24:46.124Z,83.16
2018-10-09T22:27:15.290Z,82.88
2018-10-09T22:29:44.511Z,83.45
2018-10-09T22:32:13.740Z,83.08
2018-10-09T22:34:42.978Z,82.77
2018-10-09T22:37:12.319Z,82.60
2018-10-09T22:39:41.824Z,82.51
2018-10-09T22:42:11.111Z,82.32
2018-10-09T22:44:40.354Z,82.28
2018-10-09T22:47:09.633Z,82.23
2018-10-09T22:49:38.842Z,82.36
2018-10-09T22:52:08.191Z,82.17
2018-10-09T22:54:37.345Z,82.70
2018-10-09T22:57:06.606Z,82.49
2018-10-09T22:59:35.807Z,82.17
2018-10-09T23:02:05.096Z,82.61
2018-10-09T23:04:34.382Z,82.34
2018-10-09T23:07:03.534Z,82.42
2018-10-09T23:09:32.763Z,82.65
2018-10-09T23:12:01.904Z,82.75
2018-10-09T23:14:31.106Z,82.57
2018-10-09T23:17:00.383Z,82.25
2018-10-09T23:19:29.515Z,82.27
2018-10-09T23:21:58.835Z,82.13
2018-10-09T23:24:27.979Z,81.94
2018-10-09T23:26:57.198Z,82.15
2018-10-09T23:29:26.367Z,82.47
2018-10-09T23:31:55.520Z,83.10
2018-10-09T23:34:24.700Z,83.20
2018-10-09T23:36:53.831Z,82.88
2018-10-09T23:39:23.046Z,82.95
2018-10-09T23:41:52.290Z,82.71
2018-10-09T23:44:21.474Z,82.42
2018-10-09T23:46:51.433Z,82.72
2018-10-09T23:49:20.616Z,82.73
2018-10-09T23:51:49.908Z,82.25
2018-10-09T23:54:19.101Z,82.12
2018-10-09T23:56:48.472Z,82.41
2018-10-09T23:59:17.644Z,82.66
